sensor_id;sensor_type;location;lat;lon;timestamp;P1;durP1;ratioP1;P2;durP2;ratioP2
71869;SDS011;59739;47.696;11.746;2022-11-04T00:01:54;5.60;;;4.38;;
71869;SDS011;59739;47.696;11.746;2022-11-04T00:04:22;5.85;;;4.30;;
71869;SDS011;59739;47.696;11.746;2022-11-04T00:06:50;7.60;;;4.78;;
71869;SDS011;59739;47.696;11.746;2022-11-04T00:09:21;6.57;;;5.18;;
71869;SDS011;59739;47.696;11.746;2022-11-04T00:11:57;5.82;;;4.78;;
71869;SDS011;59739;47.696;11.746;2022-11-04T00:14:41;8.13;;;5.75;;
71869;SDS011;59739;47.696;11.746;2022-11-04T00:17:11;7.88;;;5.18;;
71869;SDS011;59739;47.696;11.746;2022-11-04T00:19:50;7.53;;;5.25;;
71869;SDS011;59739;47.696;11.746;2022-11-04T00:22:38;6.20;;;4.57;;
71869;SDS011;59739;47.696;11.746;2022-11-04T00:25:24;7.38;;;4.20;;
71869;SDS011;59739;47.696;11.746;2022-11-04T00:30:57;4.50;;;3.50;;
71869;SDS011;59739;47.696;11.746;2022-11-04T00:33:47;4.07;;;2.83;;
71869;SDS011;59739;47.696;11.746;2022-11-04T00:36:14;6.78;;;2.85;;
71869;SDS011;59739;47.696;11.746;2022-11-04T00:38:41;2.70;;;2.20;;
71869;SDS011;59739;47.696;11.746;2022-11-04T00:41:07;3.08;;;1.60;;
71869;SDS011;59739;47.696;11.746;2022-11-04T00:43:53;1.92;;;1.42;;
71869;SDS011;59739;47.696;11.746;2022-11-04T00:46:27;1.75;;;1.00;;
71869;SDS011;59739;47.696;11.746;2022-11-04T00:48:56;1.20;;;1.08;;
71869;SDS011;59739;47.696;11.746;2022-11-04T00:51:23;1.20;;;0.80;;
71869;SDS011;59739;47.696;11.746;2022-11-04T00:53:49;1.00;;;0.70;;
71869;SDS011;59739;47.696;11.746;2022-11-04T00:56:16;1.05;;;0.70;;
71869;SDS011;59739;47.696;11.746;2022-11-04T00:58:42;0.85;;;0.73;;
71869;SDS011;59739;47.696;11.746;2022-11-04T01:01:08;1.83;;;0.73;;
71869;SDS011;59739;47.696;11.746;2022-11-04T01:03:37;1.05;;;0.60;;
71869;SDS011;59739;47.696;11.746;2022-11-04T01:06:03;0.73;;;0.70;;
71869;SDS011;59739;47.696;11.746;2022-11-04T01:08:30;0.65;;;0.50;;
71869;SDS011;59739;47.696;11.746;2022-11-04T01:10:59;0.95;;;0.50;;
71869;SDS011;59739;47.696;11.746;2022-11-04T01:13:35;0.65;;;0.40;;
71869;SDS011;59739;47.696;11.746;2022-11-04T01:16:02;0.65;;;0.50;;
71869;SDS011;59739;47.696;11.746;2022-11-04T01:18:31;0.68;;;0.52;;
71869;SDS011;59739;47.696;11.746;2022-11-04T01:21:04;0.57;;;0.40;;
71869;SDS011;59739;47.696;11.746;2022-11-04T01:23:35;1.05;;;0.40;;
71869;SDS011;59739;47.696;11.746;2022-11-04T01:26:05;0.85;;;0.63;;
71869;SDS011;59739;47.696;11.746;2022-11-04T01:28:32;1.63;;;0.60;;
71869;SDS011;59739;47.696;11.746;2022-11-04T01:30:58;0.57;;;0.40;;
71869;SDS011;59739;47.696;11.746;2022-11-04T01:33:29;0.73;;;0.52;;
71869;SDS011;59739;47.696;11.746;2022-11-04T01:35:57;0.70;;;0.40;;
71869;SDS011;59739;47.696;11.746;2022-11-04T01:38:24;0.75;;;0.52;;
71869;SDS011;59739;47.696;11.746;2022-11-04T01:40:50;1.10;;;0.55;;
71869;SDS011;59739;47.696;11.746;2022-11-04T01:43:18;0.50;;;0.35;;
71869;SDS011;59739;47.696;11.746;2022-11-04T01:45:47;1.08;;;0.50;;
71869;SDS011;59739;47.696;11.746;2022-11-04T01:48:21;0.40;;;0.40;;
71869;SDS011;59739;47.696;11.746;2022-11-04T01:50:55;0.63;;;0.50;;
71869;SDS011;59739;47.696;11.746;2022-11-04T01:53:32;2.40;;;0.60;;
71869;SDS011;59739;47.696;11.746;2022-11-04T01:56:04;0.32;;;0.30;;
71869;SDS011;59739;47.696;11.746;2022-11-04T01:58:37;0.60;;;0.40;;
71869;SDS011;59739;47.696;11.746;2022-11-04T02:01:07;1.20;;;0.57;;
71869;SDS011;59739;47.696;11.746;2022-11-04T02:03:35;0.60;;;0.40;;
71869;SDS011;59739;47.696;11.746;2022-11-04T02:06:13;0.85;;;0.50;;
71869;SDS011;59739;47.696;11.746;2022-11-04T02:08:41;0.90;;;0.50;;
71869;SDS011;59739;47.696;11.746;2022-11-04T02:11:08;1.00;;;0.55;;
71869;SDS011;59739;47.696;11.746;2022-11-04T02:13:34;0.55;;;0.38;;
71869;SDS011;59739;47.696;11.746;2022-11-04T02:30:58;0.60;;;0.60;;
71869;SDS011;59739;47.696;11.746;2022-11-04T02:33:41;0.75;;;0.40;;
71869;SDS011;59739;47.696;11.746;2022-11-04T02:36:24;0.73;;;0.50;;
71869;SDS011;59739;47.696;11.746;2022-11-04T02:39:31;0.40;;;0.30;;
71869;SDS011;59739;47.696;11.746;2022-11-04T02:42:17;0.50;;;0.38;;
71869;SDS011;59739;47.696;11.746;2022-11-04T02:47:37;1.23;;;0.40;;
71869;SDS011;59739;47.696;11.746;2022-11-04T02:50:19;1.08;;;0.40;;
71869;SDS011;59739;47.696;11.746;2022-11-04T02:55:49;1.00;;;0.40;;
71869;SDS011;59739;47.696;11.746;2022-11-04T02:58:22;0.55;;;0.32;;
71869;SDS011;59739;47.696;11.746;2022-11-04T03:00:55;0.70;;;0.40;;
71869;SDS011;59739;47.696;11.746;2022-11-04T03:03:24;0.30;;;0.30;;
71869;SDS011;59739;47.696;11.746;2022-11-04T03:05:56;1.30;;;0.40;;
71869;SDS011;59739;47.696;11.746;2022-11-04T03:08:24;0.30;;;0.30;;
71869;SDS011;59739;47.696;11.746;2022-11-04T03:11:22;0.30;;;0.30;;
71869;SDS011;59739;47.696;11.746;2022-11-04T03:16:47;0.50;;;0.40;;
71869;SDS011;59739;47.696;11.746;2022-11-04T03:19:26;0.40;;;0.30;;
71869;SDS011;59739;47.696;11.746;2022-11-04T03:22:08;0.30;;;0.30;;
71869;SDS011;59739;47.696;11.746;2022-11-04T03:24:38;1.30;;;0.40;;
71869;SDS011;59739;47.696;11.746;2022-11-04T03:27:08;0.45;;;0.30;;
71869;SDS011;59739;47.696;11.746;2022-11-04T03:30:05;0.40;;;0.30;;
71869;SDS011;59739;47.696;11.746;2022-11-04T03:32:44;0.75;;;0.30;;
71869;SDS011;59739;47.696;11.746;2022-11-04T03:35:42;0.57;;;0.47;;
71869;SDS011;59739;47.696;11.746;2022-11-04T03:38:08;0.50;;;0.40;;
71869;SDS011;59739;47.696;11.746;2022-11-04T03:40:34;1.88;;;0.40;;
71869;SDS011;59739;47.696;11.746;2022-11-04T03:43:07;0.40;;;0.40;;
71869;SDS011;59739;47.696;11.746;2022-11-04T03:45:52;0.30;;;0.30;;
71869;SDS011;59739;47.696;11.746;2022-11-04T03:48:19;0.40;;;0.40;;
71869;SDS011;59739;47.696;11.746;2022-11-04T03:50:46;0.45;;;0.30;;
71869;SDS011;59739;47.696;11.746;2022-11-04T03:53:19;0.43;;;0.32;;
71869;SDS011;59739;47.696;11.746;2022-11-04T04:01:48;0.35;;;0.35;;
71869;SDS011;59739;47.696;11.746;2022-11-04T04:04:22;0.95;;;0.52;;
71869;SDS011;59739;47.696;11.746;2022-11-04T04:06:56;0.70;;;0.47;;
71869;SDS011;59739;47.696;11.746;2022-11-04T04:14:41;0.30;;;0.22;;
71869;SDS011;59739;47.696;11.746;2022-11-04T04:17:16;0.30;;;0.30;;
71869;SDS011;59739;47.696;11.746;2022-11-04T04:20:02;0.32;;;0.30;;
71869;SDS011;59739;47.696;11.746;2022-11-04T04:22:46;0.25;;;0.20;;
71869;SDS011;59739;47.696;11.746;2022-11-04T04:25:17;1.38;;;0.75;;
71869;SDS011;59739;47.696;11.746;2022-11-04T04:28:05;0.77;;;0.45;;
71869;SDS011;59739;47.696;11.746;2022-11-04T04:30:31;0.90;;;0.60;;
71869;SDS011;59739;47.696;11.746;2022-11-04T04:33:05;1.48;;;0.50;;
71869;SDS011;59739;47.696;11.746;2022-11-04T04:35:39;0.98;;;0.50;;
71869;SDS011;59739;47.696;11.746;2022-11-04T04:41:20;0.47;;;0.40;;
71869;SDS011;59739;47.696;11.746;2022-11-04T04:44:14;0.60;;;0.50;;
71869;SDS011;59739;47.696;11.746;2022-11-04T04:49:47;1.15;;;0.40;;
71869;SDS011;59739;47.696;11.746;2022-11-04T04:52:31;1.30;;;0.43;;
71869;SDS011;59739;47.696;11.746;2022-11-04T04:55:00;0.90;;;0.60;;
71869;SDS011;59739;47.696;11.746;2022-11-04T04:57:26;1.38;;;0.70;;
71869;SDS011;59739;47.696;11.746;2022-11-04T04:59:52;1.17;;;0.70;;
71869;SDS011;59739;47.696;11.746;2022-11-04T05:02:18;1.30;;;0.73;;
71869;SDS011;59739;47.696;11.746;2022-11-04T05:04:44;0.93;;;0.60;;
71869;SDS011;59739;47.696;11.746;2022-11-04T05:07:10;0.75;;;0.60;;
71869;SDS011;59739;47.696;11.746;2022-11-04T05:09:36;0.40;;;0.40;;
71869;SDS011;59739;47.696;11.746;2022-11-04T05:12:03;2.03;;;0.80;;
71869;SDS011;59739;47.696;11.746;2022-11-04T05:14:29;0.57;;;0.57;;
71869;SDS011;59739;47.696;11.746;2022-11-04T05:16:56;1.00;;;0.60;;
71869;SDS011;59739;47.696;11.746;2022-11-04T05:19:22;1.00;;;0.57;;
71869;SDS011;59739;47.696;11.746;2022-11-04T05:21:48;0.50;;;0.50;;
71869;SDS011;59739;47.696;11.746;2022-11-04T05:24:14;1.05;;;0.68;;
71869;SDS011;59739;47.696;11.746;2022-11-04T05:26:40;1.00;;;0.60;;
71869;SDS011;59739;47.696;11.746;2022-11-04T05:29:06;0.80;;;0.63;;
71869;SDS011;59739;47.696;11.746;2022-11-04T05:31:32;0.73;;;0.40;;
71869;SDS011;59739;47.696;11.746;2022-11-04T05:33:58;0.80;;;0.60;;
71869;SDS011;59739;47.696;11.746;2022-11-04T05:36:25;1.02;;;0.65;;
71869;SDS011;59739;47.696;11.746;2022-11-04T05:38:52;2.30;;;0.60;;
71869;SDS011;59739;47.696;11.746;2022-11-04T05:41:21;0.80;;;0.60;;
71869;SDS011;59739;47.696;11.746;2022-11-04T05:43:54;0.55;;;0.55;;
71869;SDS011;59739;47.696;11.746;2022-11-04T05:46:22;0.93;;;0.70;;
71869;SDS011;59739;47.696;11.746;2022-11-04T05:48:49;1.23;;;0.80;;
71869;SDS011;59739;47.696;11.746;2022-11-04T05:51:16;1.77;;;0.73;;
71869;SDS011;59739;47.696;11.746;2022-11-04T05:53:44;1.77;;;0.60;;
71869;SDS011;59739;47.696;11.746;2022-11-04T05:56:10;0.90;;;0.60;;
71869;SDS011;59739;47.696;11.746;2022-11-04T05:58:36;0.95;;;0.68;;
71869;SDS011;59739;47.696;11.746;2022-11-04T06:04:01;0.80;;;0.52;;
71869;SDS011;59739;47.696;11.746;2022-11-04T06:06:33;0.45;;;0.40;;
71869;SDS011;59739;47.696;11.746;2022-11-04T06:09:00;0.70;;;0.60;;
71869;SDS011;59739;47.696;11.746;2022-11-04T06:11:27;0.47;;;0.40;;
71869;SDS011;59739;47.696;11.746;2022-11-04T06:13:55;0.90;;;0.60;;
71869;SDS011;59739;47.696;11.746;2022-11-04T06:16:22;1.20;;;0.50;;
71869;SDS011;59739;47.696;11.746;2022-11-04T06:18:54;0.40;;;0.40;;
71869;SDS011;59739;47.696;11.746;2022-11-04T06:21:22;1.15;;;0.60;;
71869;SDS011;59739;47.696;11.746;2022-11-04T06:23:54;0.80;;;0.50;;
71869;SDS011;59739;47.696;11.746;2022-11-04T06:26:21;1.00;;;0.60;;
71869;SDS011;59739;47.696;11.746;2022-11-04T06:28:51;0.80;;;0.80;;
71869;SDS011;59739;47.696;11.746;2022-11-04T06:31:17;1.38;;;0.82;;
71869;SDS011;59739;47.696;11.746;2022-11-04T06:33:44;1.00;;;0.60;;
71869;SDS011;59739;47.696;11.746;2022-11-04T06:36:12;1.90;;;0.63;;
71869;SDS011;59739;47.696;11.746;2022-11-04T06:38:40;1.00;;;0.52;;
71869;SDS011;59739;47.696;11.746;2022-11-04T06:41:09;1.77;;;0.60;;
71869;SDS011;59739;47.696;11.746;2022-11-04T06:43:38;0.63;;;0.57;;
71869;SDS011;59739;47.696;11.746;2022-11-04T06:46:04;2.22;;;0.70;;
71869;SDS011;59739;47.696;11.746;2022-11-04T06:48:31;0.80;;;0.40;;
71869;SDS011;59739;47.696;11.746;2022-11-04T06:50:57;0.93;;;0.60;;
71869;SDS011;59739;47.696;11.746;2022-11-04T06:53:25;1.92;;;1.73;;
71869;SDS011;59739;47.696;11.746;2022-11-04T06:55:52;1.95;;;0.40;;
71869;SDS011;59739;47.696;11.746;2022-11-04T06:58:52;2.47;;;0.75;;
71869;SDS011;59739;47.696;11.746;2022-11-04T07:01:20;2.20;;;0.60;;
71869;SDS011;59739;47.696;11.746;2022-11-04T07:03:49;0.88;;;0.57;;
71869;SDS011;59739;47.696;11.746;2022-11-04T07:06:18;1.17;;;0.50;;
71869;SDS011;59739;47.696;11.746;2022-11-04T07:08:49;1.55;;;1.33;;
71869;SDS011;59739;47.696;11.746;2022-11-04T07:11:17;1.77;;;1.15;;
71869;SDS011;59739;47.696;11.746;2022-11-04T07:13:45;0.98;;;0.60;;
71869;SDS011;59739;47.696;11.746;2022-11-04T07:16:12;0.47;;;0.47;;
71869;SDS011;59739;47.696;11.746;2022-11-04T07:18:38;0.63;;;0.32;;
71869;SDS011;59739;47.696;11.746;2022-11-04T07:21:04;1.13;;;0.50;;
71869;SDS011;59739;47.696;11.746;2022-11-04T07:23:31;0.55;;;0.43;;
71869;SDS011;59739;47.696;11.746;2022-11-04T07:25:59;0.80;;;0.30;;
71869;SDS011;59739;47.696;11.746;2022-11-04T07:28:29;0.93;;;0.40;;
71869;SDS011;59739;47.696;11.746;2022-11-04T07:30:57;0.60;;;0.40;;
71869;SDS011;59739;47.696;11.746;2022-11-04T07:33:25;1.48;;;0.50;;
71869;SDS011;59739;47.696;11.746;2022-11-04T07:35:52;0.65;;;0.40;;
71869;SDS011;59739;47.696;11.746;2022-11-04T07:38:19;0.95;;;0.57;;
71869;SDS011;59739;47.696;11.746;2022-11-04T07:40:46;0.75;;;0.40;;
71869;SDS011;59739;47.696;11.746;2022-11-04T07:43:13;0.32;;;0.28;;
71869;SDS011;59739;47.696;11.746;2022-11-04T07:45:40;2.30;;;1.65;;
71869;SDS011;59739;47.696;11.746;2022-11-04T07:48:06;1.85;;;0.80;;
71869;SDS011;59739;47.696;11.746;2022-11-04T07:50:33;3.60;;;1.90;;
71869;SDS011;59739;47.696;11.746;2022-11-04T07:53:02;1.48;;;0.90;;
71869;SDS011;59739;47.696;11.746;2022-11-04T07:55:29;0.98;;;0.60;;
71869;SDS011;59739;47.696;11.746;2022-11-04T07:57:55;1.20;;;0.80;;
71869;SDS011;59739;47.696;11.746;2022-11-04T08:00:21;1.85;;;1.45;;
71869;SDS011;59739;47.696;11.746;2022-11-04T08:02:47;1.05;;;0.90;;
71869;SDS011;59739;47.696;11.746;2022-11-04T08:05:13;1.67;;;0.60;;
71869;SDS011;59739;47.696;11.746;2022-11-04T08:07:39;1.15;;;0.52;;
71869;SDS011;59739;47.696;11.746;2022-11-04T08:10:06;0.70;;;0.50;;
71869;SDS011;59739;47.696;11.746;2022-11-04T08:12:34;0.50;;;0.50;;
71869;SDS011;59739;47.696;11.746;2022-11-04T08:15:02;1.40;;;0.50;;
71869;SDS011;59739;47.696;11.746;2022-11-04T08:17:29;1.15;;;0.60;;
71869;SDS011;59739;47.696;11.746;2022-11-04T08:19:55;1.58;;;0.80;;
71869;SDS011;59739;47.696;11.746;2022-11-04T08:22:21;0.73;;;0.50;;
71869;SDS011;59739;47.696;11.746;2022-11-04T08:24:47;0.75;;;0.40;;
71869;SDS011;59739;47.696;11.746;2022-11-04T08:27:13;0.30;;;0.30;;
71869;SDS011;59739;47.696;11.746;2022-11-04T08:29:39;1.30;;;0.70;;
71869;SDS011;59739;47.696;11.746;2022-11-04T08:32:08;0.35;;;0.30;;
71869;SDS011;59739;47.696;11.746;2022-11-04T08:34:34;0.55;;;0.50;;
71869;SDS011;59739;47.696;11.746;2022-11-04T08:37:00;1.05;;;0.95;;
71869;SDS011;59739;47.696;11.746;2022-11-04T08:39:26;3.00;;;1.55;;
71869;SDS011;59739;47.696;11.746;2022-11-04T08:41:52;1.10;;;1.00;;
71869;SDS011;59739;47.696;11.746;2022-11-04T08:44:18;0.80;;;0.68;;
71869;SDS011;59739;47.696;11.746;2022-11-04T08:46:45;0.75;;;0.50;;
71869;SDS011;59739;47.696;11.746;2022-11-04T08:49:11;0.50;;;0.50;;
71869;SDS011;59739;47.696;11.746;2022-11-04T08:51:38;0.52;;;0.45;;
71869;SDS011;59739;47.696;11.746;2022-11-04T08:54:09;0.70;;;0.70;;
71869;SDS011;59739;47.696;11.746;2022-11-04T08:56:44;3.28;;;1.85;;
71869;SDS011;59739;47.696;11.746;2022-11-04T08:59:10;3.28;;;1.65;;
71869;SDS011;59739;47.696;11.746;2022-11-04T09:01:36;1.00;;;0.68;;
71869;SDS011;59739;47.696;11.746;2022-11-04T09:04:05;1.60;;;0.70;;
71869;SDS011;59739;47.696;11.746;2022-11-04T09:06:36;0.68;;;0.60;;
71869;SDS011;59739;47.696;11.746;2022-11-04T09:09:06;1.55;;;1.20;;
71869;SDS011;59739;47.696;11.746;2022-11-04T09:11:36;0.98;;;0.65;;
71869;SDS011;59739;47.696;11.746;2022-11-04T09:14:05;0.95;;;0.50;;
71869;SDS011;59739;47.696;11.746;2022-11-04T09:16:31;0.70;;;0.50;;
71869;SDS011;59739;47.696;11.746;2022-11-04T09:18:59;1.30;;;0.63;;
71869;SDS011;59739;47.696;11.746;2022-11-04T09:21:26;1.35;;;0.70;;
71869;SDS011;59739;47.696;11.746;2022-11-04T09:23:56;0.50;;;0.47;;
71869;SDS011;59739;47.696;11.746;2022-11-04T09:26:22;2.25;;;0.68;;
71869;SDS011;59739;47.696;11.746;2022-11-04T09:28:56;1.95;;;0.70;;
71869;SDS011;59739;47.696;11.746;2022-11-04T09:31:24;0.80;;;0.70;;
71869;SDS011;59739;47.696;11.746;2022-11-04T09:33:54;0.82;;;0.60;;
71869;SDS011;59739;47.696;11.746;2022-11-04T09:36:20;1.17;;;0.60;;
71869;SDS011;59739;47.696;11.746;2022-11-04T09:38:47;1.00;;;0.90;;
71869;SDS011;59739;47.696;11.746;2022-11-04T09:44:50;0.57;;;0.43;;
71869;SDS011;59739;47.696;11.746;2022-11-04T09:47:25;1.50;;;0.60;;
71869;SDS011;59739;47.696;11.746;2022-11-04T09:49:55;2.15;;;0.50;;
71869;SDS011;59739;47.696;11.746;2022-11-04T09:52:24;3.85;;;0.63;;
71869;SDS011;59739;47.696;11.746;2022-11-04T09:57:33;0.52;;;0.50;;
71869;SDS011;59739;47.696;11.746;2022-11-04T09:59:59;0.40;;;0.30;;
71869;SDS011;59739;47.696;11.746;2022-11-04T10:02:39;0.25;;;0.20;;
71869;SDS011;59739;47.696;11.746;2022-11-04T10:05:37;0.20;;;0.20;;
71869;SDS011;59739;47.696;11.746;2022-11-04T10:19:42;1.08;;;0.50;;
71869;SDS011;59739;47.696;11.746;2022-11-04T10:25:27;0.57;;;0.57;;
71869;SDS011;59739;47.696;11.746;2022-11-04T10:28:08;1.05;;;0.60;;
71869;SDS011;59739;47.696;11.746;2022-11-04T10:30:39;0.20;;;0.20;;
71869;SDS011;59739;47.696;11.746;2022-11-04T10:36:04;0.33;;;0.20;;
71869;SDS011;59739;47.696;11.746;2022-11-04T10:38:35;0.20;;;0.20;;
71869;SDS011;59739;47.696;11.746;2022-11-04T10:44:03;0.85;;;0.30;;
71869;SDS011;59739;47.696;11.746;2022-11-04T10:52:17;0.65;;;0.30;;
71869;SDS011;59739;47.696;11.746;2022-11-04T10:54:45;0.10;;;0.10;;
71869;SDS011;59739;47.696;11.746;2022-11-04T10:57:17;0.30;;;0.20;;
71869;SDS011;59739;47.696;11.746;2022-11-04T11:05:13;0.20;;;0.20;;
71869;SDS011;59739;47.696;11.746;2022-11-04T11:07:45;0.40;;;0.40;;
71869;SDS011;59739;47.696;11.746;2022-11-04T11:12:58;0.20;;;0.20;;
71869;SDS011;59739;47.696;11.746;2022-11-04T11:20:37;13.82;;;5.65;;
71869;SDS011;59739;47.696;11.746;2022-11-04T11:23:05;2.25;;;1.23;;
71869;SDS011;59739;47.696;11.746;2022-11-04T11:26:11;1.88;;;1.15;;
71869;SDS011;59739;47.696;11.746;2022-11-04T11:28:45;1.08;;;0.70;;
71869;SDS011;59739;47.696;11.746;2022-11-04T11:31:15;0.40;;;0.40;;
71869;SDS011;59739;47.696;11.746;2022-11-04T11:33:58;0.20;;;0.20;;
71869;SDS011;59739;47.696;11.746;2022-11-04T11:36:35;0.30;;;0.30;;
71869;SDS011;59739;47.696;11.746;2022-11-04T11:44:53;0.10;;;0.10;;
71869;SDS011;59739;47.696;11.746;2022-11-04T11:52:44;0.73;;;0.52;;
71869;SDS011;59739;47.696;11.746;2022-11-04T11:55:19;0.47;;;0.40;;
71869;SDS011;59739;47.696;11.746;2022-11-04T11:58:11;0.50;;;0.50;;
71869;SDS011;59739;47.696;11.746;2022-11-04T12:01:11;0.80;;;0.43;;
71869;SDS011;59739;47.696;11.746;2022-11-04T12:03:44;0.43;;;0.30;;
71869;SDS011;59739;47.696;11.746;2022-11-04T12:15:15;1.60;;;1.20;;
71869;SDS011;59739;47.696;11.746;2022-11-04T12:23:43;1.23;;;1.10;;
71869;SDS011;59739;47.696;11.746;2022-11-04T12:26:23;1.23;;;0.93;;
71869;SDS011;59739;47.696;11.746;2022-11-04T12:32:11;0.70;;;0.50;;
71869;SDS011;59739;47.696;11.746;2022-11-04T12:38:13;1.10;;;0.88;;
71869;SDS011;59739;47.696;11.746;2022-11-04T12:44:07;0.73;;;0.45;;
71869;SDS011;59739;47.696;11.746;2022-11-04T12:46:45;1.00;;;0.60;;
71869;SDS011;59739;47.696;11.746;2022-11-04T12:52:23;2.65;;;1.95;;
71869;SDS011;59739;47.696;11.746;2022-11-04T13:00:29;1.65;;;1.08;;
71869;SDS011;59739;47.696;11.746;2022-11-04T13:02:59;1.02;;;0.93;;
71869;SDS011;59739;47.696;11.746;2022-11-04T13:11:19;3.75;;;1.55;;
71869;SDS011;59739;47.696;11.746;2022-11-04T13:13:59;2.83;;;1.60;;
71869;SDS011;59739;47.696;11.746;2022-11-04T13:16:45;3.08;;;1.92;;
71869;SDS011;59739;47.696;11.746;2022-11-04T13:19:33;1.23;;;1.07;;
71869;SDS011;59739;47.696;11.746;2022-11-04T13:22:14;1.90;;;1.13;;
71869;SDS011;59739;47.696;11.746;2022-11-04T13:27:53;1.45;;;0.90;;
71869;SDS011;59739;47.696;11.746;2022-11-04T13:32:57;3.72;;;2.63;;
71869;SDS011;59739;47.696;11.746;2022-11-04T13:35:31;2.80;;;1.50;;
71869;SDS011;59739;47.696;11.746;2022-11-04T13:38:35;6.93;;;3.05;;
71869;SDS011;59739;47.696;11.746;2022-11-04T13:41:31;3.65;;;2.00;;
71869;SDS011;59739;47.696;11.746;2022-11-04T13:44:04;4.63;;;1.75;;
71869;SDS011;59739;47.696;11.746;2022-11-04T13:46:48;1.38;;;1.00;;
71869;SDS011;59739;47.696;11.746;2022-11-04T13:49:22;2.15;;;1.40;;
71869;SDS011;59739;47.696;11.746;2022-11-04T13:54:45;3.22;;;1.90;;
71869;SDS011;59739;47.696;11.746;2022-11-04T13:57:26;2.92;;;1.65;;
71869;SDS011;59739;47.696;11.746;2022-11-04T14:00:06;3.53;;;2.05;;
71869;SDS011;59739;47.696;11.746;2022-11-04T14:02:39;3.00;;;2.15;;
71869;SDS011;59739;47.696;11.746;2022-11-04T14:08:15;2.15;;;1.40;;
71869;SDS011;59739;47.696;11.746;2022-11-04T14:18:41;3.30;;;1.98;;
71869;SDS011;59739;47.696;11.746;2022-11-04T14:23:41;3.63;;;1.75;;
71869;SDS011;59739;47.696;11.746;2022-11-04T14:26:15;7.35;;;3.10;;
71869;SDS011;59739;47.696;11.746;2022-11-04T14:28:45;6.63;;;3.70;;
71869;SDS011;59739;47.696;11.746;2022-11-04T14:31:47;3.53;;;1.80;;
71869;SDS011;59739;47.696;11.746;2022-11-04T14:36:56;2.60;;;1.52;;
71869;SDS011;59739;47.696;11.746;2022-11-04T14:39:39;1.75;;;1.05;;
71869;SDS011;59739;47.696;11.746;2022-11-04T14:42:07;5.22;;;1.80;;
71869;SDS011;59739;47.696;11.746;2022-11-04T14:52:28;0.47;;;0.40;;
71869;SDS011;59739;47.696;11.746;2022-11-04T14:55:17;0.30;;;0.30;;
71869;SDS011;59739;47.696;11.746;2022-11-04T14:57:44;2.53;;;0.40;;
71869;SDS011;59739;47.696;11.746;2022-11-04T15:05:45;0.40;;;0.40;;
71869;SDS011;59739;47.696;11.746;2022-11-04T15:08:24;0.32;;;0.30;;
71869;SDS011;59739;47.696;11.746;2022-11-04T15:10:57;0.98;;;0.60;;
71869;SDS011;59739;47.696;11.746;2022-11-04T15:13:27;4.65;;;2.10;;
71869;SDS011;59739;47.696;11.746;2022-11-04T15:15:56;2.65;;;1.30;;
71869;SDS011;59739;47.696;11.746;2022-11-04T15:18:24;1.40;;;0.90;;
71869;SDS011;59739;47.696;11.746;2022-11-04T15:20:57;1.40;;;0.88;;
71869;SDS011;59739;47.696;11.746;2022-11-04T15:23:28;1.80;;;0.90;;
71869;SDS011;59739;47.696;11.746;2022-11-04T15:26:02;2.05;;;1.17;;
71869;SDS011;59739;47.696;11.746;2022-11-04T15:28:29;1.75;;;0.90;;
71869;SDS011;59739;47.696;11.746;2022-11-04T15:33:45;2.20;;;1.25;;
71869;SDS011;59739;47.696;11.746;2022-11-04T15:36:19;1.23;;;0.70;;
71869;SDS011;59739;47.696;11.746;2022-11-04T15:38:52;2.08;;;1.00;;
71869;SDS011;59739;47.696;11.746;2022-11-04T15:41:23;1.48;;;0.82;;
71869;SDS011;59739;47.696;11.746;2022-11-04T15:44:22;0.82;;;0.52;;
71869;SDS011;59739;47.696;11.746;2022-11-04T15:46:52;0.47;;;0.47;;
71869;SDS011;59739;47.696;11.746;2022-11-04T15:51:57;0.70;;;0.60;;
71869;SDS011;59739;47.696;11.746;2022-11-04T15:54:38;0.80;;;0.70;;
71869;SDS011;59739;47.696;11.746;2022-11-04T15:57:14;0.85;;;0.70;;
71869;SDS011;59739;47.696;11.746;2022-11-04T15:59:45;1.92;;;1.02;;
71869;SDS011;59739;47.696;11.746;2022-11-04T16:02:27;3.85;;;2.60;;
71869;SDS011;59739;47.696;11.746;2022-11-04T16:05:06;2.92;;;2.00;;
71869;SDS011;59739;47.696;11.746;2022-11-04T16:08:15;1.80;;;1.50;;
71869;SDS011;59739;47.696;11.746;2022-11-04T16:10:45;1.52;;;1.02;;
71869;SDS011;59739;47.696;11.746;2022-11-04T16:15:42;1.08;;;0.98;;
71869;SDS011;59739;47.696;11.746;2022-11-04T16:18:22;1.80;;;1.17;;
71869;SDS011;59739;47.696;11.746;2022-11-04T16:20:51;1.75;;;1.15;;
71869;SDS011;59739;47.696;11.746;2022-11-04T16:23:19;1.67;;;0.90;;
71869;SDS011;59739;47.696;11.746;2022-11-04T16:25:59;1.27;;;1.10;;
71869;SDS011;59739;47.696;11.746;2022-11-04T16:28:33;1.13;;;0.95;;
71869;SDS011;59739;47.696;11.746;2022-11-04T16:31:06;1.52;;;1.42;;
71869;SDS011;59739;47.696;11.746;2022-11-04T16:33:45;1.83;;;1.27;;
71869;SDS011;59739;47.696;11.746;2022-11-04T16:36:11;1.88;;;1.10;;
71869;SDS011;59739;47.696;11.746;2022-11-04T16:38:57;0.95;;;0.80;;
71869;SDS011;59739;47.696;11.746;2022-11-04T16:41:28;0.88;;;0.70;;
71869;SDS011;59739;47.696;11.746;2022-11-04T16:43:57;2.15;;;1.20;;
71869;SDS011;59739;47.696;11.746;2022-11-04T16:46:23;1.75;;;0.98;;
71869;SDS011;59739;47.696;11.746;2022-11-04T16:48:50;1.67;;;1.30;;
71869;SDS011;59739;47.696;11.746;2022-11-04T16:51:17;1.27;;;0.77;;
71869;SDS011;59739;47.696;11.746;2022-11-04T16:53:48;0.80;;;0.80;;
71869;SDS011;59739;47.696;11.746;2022-11-04T16:56:16;2.65;;;1.80;;
71869;SDS011;59739;47.696;11.746;2022-11-04T16:58:45;1.50;;;1.10;;
71869;SDS011;59739;47.696;11.746;2022-11-04T17:01:11;1.65;;;1.20;;
71869;SDS011;59739;47.696;11.746;2022-11-04T17:03:38;1.45;;;1.25;;
71869;SDS011;59739;47.696;11.746;2022-11-04T17:06:07;4.45;;;2.35;;
71869;SDS011;59739;47.696;11.746;2022-11-04T17:08:35;2.80;;;2.10;;
71869;SDS011;59739;47.696;11.746;2022-11-04T17:11:02;3.55;;;2.20;;
71869;SDS011;59739;47.696;11.746;2022-11-04T17:13:29;4.10;;;1.73;;
71869;SDS011;59739;47.696;11.746;2022-11-04T17:15:55;2.13;;;1.60;;
71869;SDS011;59739;47.696;11.746;2022-11-04T17:18:21;2.35;;;1.42;;
71869;SDS011;59739;47.696;11.746;2022-11-04T17:20:48;1.45;;;1.23;;
71869;SDS011;59739;47.696;11.746;2022-11-04T17:23:18;1.40;;;1.20;;
71869;SDS011;59739;47.696;11.746;2022-11-04T17:25:45;2.65;;;1.80;;
71869;SDS011;59739;47.696;11.746;2022-11-04T17:28:12;3.40;;;1.20;;
71869;SDS011;59739;47.696;11.746;2022-11-04T17:30:38;2.35;;;1.48;;
71869;SDS011;59739;47.696;11.746;2022-11-04T17:33:15;3.28;;;2.10;;
71869;SDS011;59739;47.696;11.746;2022-11-04T17:35:43;10.20;;;5.70;;
71869;SDS011;59739;47.696;11.746;2022-11-04T17:38:13;4.70;;;2.55;;
71869;SDS011;59739;47.696;11.746;2022-11-04T17:40:39;3.35;;;2.45;;
71869;SDS011;59739;47.696;11.746;2022-11-04T17:43:24;4.47;;;3.25;;
71869;SDS011;59739;47.696;11.746;2022-11-04T17:46:10;2.85;;;1.75;;
71869;SDS011;59739;47.696;11.746;2022-11-04T17:48:55;3.35;;;1.92;;
71869;SDS011;59739;47.696;11.746;2022-11-04T17:51:22;1.73;;;1.27;;
71869;SDS011;59739;47.696;11.746;2022-11-04T17:53:48;2.42;;;1.35;;
71869;SDS011;59739;47.696;11.746;2022-11-04T17:56:15;2.58;;;1.20;;
71869;SDS011;59739;47.696;11.746;2022-11-04T17:58:43;1.92;;;1.58;;
71869;SDS011;59739;47.696;11.746;2022-11-04T18:01:10;2.30;;;1.70;;
71869;SDS011;59739;47.696;11.746;2022-11-04T18:03:38;2.80;;;1.63;;
71869;SDS011;59739;47.696;11.746;2022-11-04T18:06:05;2.78;;;1.90;;
71869;SDS011;59739;47.696;11.746;2022-11-04T18:08:32;2.85;;;2.20;;
71869;SDS011;59739;47.696;11.746;2022-11-04T18:11:02;3.88;;;3.40;;